Time;durP1;ratioP1;P1;durP2;ratioP2;P2;SDS_P1;SDS_P2;PMS_P1;PMS_P2;Temp;Humidity;BMP_temperature;BMP_pressure;BME280_temperature;BME280_humidity;BME280_pressure;Samples;Min_cycle;Max_cycle;Signal;HPM_P1;HPM_P2
2023/06/09 00:01:04;;;;;;;10.05;4.20;;;20.70;63.80;;;;;;3987514;29;20061;-58
2023/06/09 00:03:47;;;;;;;11.38;4.55;;;20.60;63.90;;;;;;3987800;29;20134;-58
2023/06/09 00:06:30;;;;;;;8.15;3.47;;;20.60;64.00;;;;;;3987278;29;20062;-58
2023/06/09 00:09:13;;;;;;;11.40;3.72;;;20.60;64.80;;;;;;3993004;29;20084;-58
2023/06/09 00:11:53;;;;;;;8.77;4.18;;;20.60;63.90;;;;;;3998750;29;20106;-58
2023/06/09 00:14:34;;;;;;;8.68;4.38;;;20.60;63.90;;;;;;4002157;29;20111;-58
2023/06/09 00:17:16;;;;;;;8.43;3.85;;;20.60;63.70;;;;;;4002637;29;20074;-58
2023/06/09 00:20:02;;;;;;;10.00;3.95;;;20.60;63.60;;;;;;4002389;29;20061;-58
2023/06/09 00:22:44;;;;;;;10.63;3.75;;;20.60;63.90;;;;;;4002522;29;20112;-58
2023/06/09 00:25:27;;;;;;;11.13;3.80;;;20.60;64.00;;;;;;4002636;29;20049;-58
2023/06/09 00:28:09;;;;;;;6.65;3.42;;;20.60;64.30;;;;;;4002214;29;20153;-55
2023/06/09 00:30:50;;;;;;;14.23;4.00;;;20.60;64.30;;;;;;3986424;29;20061;-55
2023/06/09 00:33:31;;;;;;;12.95;4.10;;;20.60;64.30;;;;;;3987293;29;20069;-57
2023/06/09 00:36:12;;;;;;;5.82;3.65;;;20.60;64.30;;;;;;3987312;29;20496;-59
2023/06/09 00:38:53;;;;;;;;;;;20.60;64.40;;;;;;3991820;29;20402;-59
2023/06/09 00:41:37;;;;;;;12.80;4.33;;;20.50;64.50;;;;;;4001821;29;20371;-58
2023/06/09 00:44:18;;;;;;;10.30;4.07;;;20.50;64.70;;;;;;4002419;29;20306;-58
2023/06/09 00:47:00;;;;;;;16.40;4.25;;;20.50;64.60;;;;;;4001741;29;20149;-58
2023/06/09 00:49:43;;;;;;;9.48;4.05;;;20.50;64.30;;;;;;4001091;29;20057;-58
2023/06/09 00:52:24;;;;;;;11.05;4.63;;;20.50;64.20;;;;;;3990649;29;20061;-58
2023/06/09 00:55:06;;;;;;;12.80;4.72;;;20.50;64.30;;;;;;4001889;29;20106;-58
2023/06/09 00:57:55;;;;;;;12.57;4.75;;;20.50;64.40;;;;;;4002033;29;20133;-57
2023/06/09 01:00:38;;;;;;;11.98;4.95;;;20.50;64.40;;;;;;4000648;29;20513;-58
2023/06/09 01:03:19;;;;;;;16.80;5.25;;;20.50;64.50;;;;;;4001017;29;20513;-58
2023/06/09 01:06:09;;;;;;;13.15;4.75;;;20.50;64.50;;;;;;4002080;29;20060;-58
2023/06/09 01:08:56;;;;;;;11.95;4.68;;;20.50;64.30;;;;;;3985950;29;20061;-58
2023/06/09 01:11:44;;;;;;;10.95;4.53;;;20.40;64.20;;;;;;3986342;29;20086;-57
2023/06/09 01:14:30;;;;;;;9.25;4.30;;;20.40;64.60;;;;;;3986918;29;20114;-58
2023/06/09 01:17:18;;;;;;;8.35;4.15;;;20.40;64.80;;;;;;3994423;29;20186;-57
2023/06/09 01:20:05;;;;;;;12.40;4.63;;;20.40;64.50;;;;;;3990359;29;20053;-57
2023/06/09 01:22:51;;;;;;;8.60;4.28;;;20.40;64.80;;;;;;4000850;29;20061;-58
2023/06/09 01:25:37;;;;;;;14.10;4.20;;;20.40;64.80;;;;;;4000851;29;20060;-58
2023/06/09 01:28:21;;;;;;;13.13;4.63;;;20.40;64.80;;;;;;4000381;29;20069;-57
2023/06/09 01:31:02;;;;;;;15.38;4.30;;;20.40;64.70;;;;;;4001276;29;20141;-57
2023/06/09 01:33:45;;;;;;;12.57;4.90;;;20.40;64.70;;;;;;3986804;29;20186;-58
2023/06/09 01:36:26;;;;;;;7.43;3.60;;;20.40;64.50;;;;;;3986754;29;20065;-58
2023/06/09 01:39:08;;;;;;;15.10;4.72;;;20.40;64.60;;;;;;3986925;29;20061;-57
2023/06/09 01:41:49;;;;;;;8.70;4.20;;;20.40;64.90;;;;;;3986755;29;20060;-57
2023/06/09 01:44:30;;;;;;;10.63;3.78;;;20.30;65.10;;;;;;3985527;29;20111;-57
2023/06/09 01:47:12;;;;;;;13.45;4.22;;;20.30;65.20;;;;;;4000250;29;20138;-58
2023/06/09 01:50:02;;;;;;;10.20;3.97;;;20.30;66.00;;;;;;4001663;29;20129;-58
2023/06/09 01:52:50;;;;;;;10.90;4.55;;;20.30;65.00;;;;;;4000806;29;20442;-59
2023/06/09 01:55:35;;;;;;;11.85;4.25;;;20.30;65.50;;;;;;4000379;29;20129;-58
2023/06/09 01:58:26;;;;;;;16.60;4.43;;;20.30;65.40;;;;;;4000635;29;20077;-58
2023/06/09 02:01:08;;;;;;;10.40;4.38;;;20.30;65.50;;;;;;4000358;29;20056;-58
2023/06/09 02:03:52;;;;;;;15.98;5.07;;;20.30;65.60;;;;;;4001159;29;20049;-58
2023/06/09 02:06:36;;;;;;;13.60;4.47;;;20.30;65.60;;;;;;4001412;29;20069;-58
2023/06/09 02:09:17;;;;;;;15.93;5.22;;;20.30;65.40;;;;;;4001411;29;20105;-58
2023/06/09 02:11:59;;;;;;;14.38;5.55;;;20.30;65.50;;;;;;4001260;29;20072;-59
2023/06/09 02:14:43;;;;;;;10.45;4.45;;;20.30;65.60;;;;;;3986205;29;20670;-58
2023/06/09 02:17:25;;;;;;;10.18;4.90;;;20.20;65.60;;;;;;3974634;29;20073;-59
2023/06/09 02:20:08;;;;;;;11.95;4.45;;;20.30;65.80;;;;;;3995505;29;20808;-59
2023/06/09 02:22:49;;;;;;;13.38;4.95;;;20.20;65.80;;;;;;4001942;29;20064;-59
2023/06/09 02:25:32;;;;;;;7.85;4.50;;;20.20;65.70;;;;;;4004245;29;20053;-59
2023/06/09 02:28:13;;;;;;;9.35;5.22;;;20.20;65.60;;;;;;4002976;29;20149;-59
2023/06/09 02:30:56;;;;;;;17.13;5.05;;;20.20;65.70;;;;;;4003232;29;20141;-58
2023/06/09 02:33:40;;;;;;;12.45;5.07;;;20.20;65.60;;;;;;4003601;29;20082;-58
2023/06/09 02:36:21;;;;;;;;;;;20.20;65.70;;;;;;4002881;29;20056;-58
2023/06/09 02:39:03;;;;;;;11.50;5.30;;;20.20;65.60;;;;;;4003970;29;19931;-59
2023/06/09 02:41:44;;;;;;;8.60;4.15;;;20.20;66.00;;;;;;4002507;29;20065;-58
2023/06/09 02:44:25;;;;;;;8.32;3.92;;;20.20;66.00;;;;;;3987584;29;20184;-57
2023/06/09 02:47:08;;;;;;;12.27;4.70;;;20.20;66.10;;;;;;3983644;29;20126;-58
2023/06/09 02:49:49;;;;;;;8.30;4.22;;;20.20;66.10;;;;;;3987645;29;20069;-59
2023/06/09 02:52:31;;;;;;;11.18;4.47;;;20.10;66.10;;;;;;3991860;29;20429;-59
2023/06/09 02:55:12;;;;;;;;;;;20.10;66.20;;;;;;3997934;29;20061;-59
2023/06/09 02:57:57;;;;;;;12.50;4.40;;;20.10;66.30;;;;;;4002920;29;19968;-59
2023/06/09 03:00:44;;;;;;;13.05;4.75;;;20.10;66.40;;;;;;4002442;29;20090;-57
2023/06/09 03:03:28;;;;;;;10.50;4.78;;;20.10;66.50;;;;;;4003710;29;20056;-58
2023/06/09 03:06:09;;;;;;;10.27;4.13;;;20.10;66.50;;;;;;4003785;29;20101;-59
2023/06/09 03:08:51;;;;;;;11.00;4.22;;;20.10;66.30;;;;;;4002386;29;20061;-60
2023/06/09 03:11:32;;;;;;;11.00;4.55;;;20.10;66.40;;;;;;3997874;29;20061;-59
2023/06/09 03:14:13;;;;;;;14.07;4.40;;;20.10;66.40;;;;;;3987541;29;20060;-59
2023/06/09 03:16:55;;;;;;;12.35;4.60;;;20.10;67.30;;;;;;3987360;29;20065;-58
2023/06/09 03:19:37;;;;;;;12.15;5.00;;;20.10;66.40;;;;;;3995027;29;20057;-59
2023/06/09 03:22:20;;;;;;;16.27;5.30;;;20.10;66.40;;;;;;4002374;29;20494;-59
2023/06/09 03:25:01;;;;;;;10.88;5.47;;;20.00;66.40;;;;;;4002347;29;20106;-60
2023/06/09 03:27:43;;;;;;;15.30;5.63;;;20.00;66.50;;;;;;3987173;29;20076;-60
2023/06/09 03:30:24;;;;;;;14.43;6.65;;;20.00;66.50;;;;;;4001856;29;20061;-60
2023/06/09 03:33:06;;;;;;;13.98;5.65;;;20.00;66.40;;;;;;3987831;29;20054;-61
2023/06/09 03:35:50;;;;;;;9.40;5.32;;;20.00;66.50;;;;;;3987919;29;20058;-61
2023/06/09 03:38:34;;;;;;;13.93;6.03;;;20.00;66.80;;;;;;3987018;29;20501;-61
2023/06/09 03:41:15;;;;;;;12.45;6.03;;;20.00;66.90;;;;;;3987943;29;20065;-61
2023/06/09 03:43:56;;;;;;;12.82;5.90;;;20.00;66.70;;;;;;3998880;29;20069;-61
2023/06/09 03:46:37;;;;;;;;;;;20.00;66.60;;;;;;4002445;29;20093;-60
2023/06/09 03:49:19;;;;;;;13.48;6.30;;;20.00;66.80;;;;;;4012237;29;20395;-59
2023/06/09 03:52:06;;;;;;;13.23;5.95;;;20.00;67.30;;;;;;4001921;29;20486;-60
2023/06/09 03:54:49;;;;;;;11.77;5.22;;;20.00;66.80;;;;;;4001765;29;20206;-60
2023/06/09 03:57:30;;;;;;;12.70;5.45;;;20.00;67.00;;;;;;4001613;29;20065;-60
2023/06/09 04:00:13;;;;;;;11.38;5.13;;;20.00;67.10;;;;;;4000399;29;20549;-60
2023/06/09 04:02:57;;;;;;;9.85;5.80;;;20.00;66.70;;;;;;4002731;29;20525;-60
2023/06/09 04:05:40;;;;;;;7.18;5.00;;;20.00;66.90;;;;;;4001558;29;20178;-59
2023/06/09 04:08:22;;;;;;;11.98;5.57;;;20.00;66.90;;;;;;4002404;29;20406;-59
2023/06/09 04:11:03;;;;;;;14.00;5.47;;;19.90;66.90;;;;;;4001766;29;20052;-59
2023/06/09 04:13:44;;;;;;;17.50;5.85;;;19.90;67.00;;;;;;4002704;29;20138;-59
2023/06/09 04:16:25;;;;;;;12.90;5.32;;;19.90;67.20;;;;;;4002052;29;20454;-59
2023/06/09 04:19:07;;;;;;;;;;;19.90;68.10;;;;;;4002257;29;20122;-59
2023/06/09 04:21:48;;;;;;;;;;;19.90;67.20;;;;;;4001743;29;19947;-60
2023/06/09 04:24:31;;;;;;;16.98;5.93;;;19.90;67.20;;;;;;4002321;29;19935;-59
2023/06/09 04:27:13;;;;;;;12.15;4.43;;;19.90;67.50;;;;;;4000860;29;20207;-59
2023/06/09 04:29:54;;;;;;;10.10;5.10;;;19.90;67.30;;;;;;4001205;29;20061;-59
2023/06/09 04:32:35;;;;;;;9.57;4.78;;;19.90;68.30;;;;;;4001492;29;20096;-59
2023/06/09 04:35:17;;;;;;;13.73;5.10;;;19.90;67.40;;;;;;3986128;29;20065;-60
2023/06/09 04:37:59;;;;;;;14.75;5.32;;;20.00;67.40;;;;;;3993671;29;20061;-60
2023/06/09 04:40:45;;;;;;;10.80;4.70;;;19.90;67.30;;;;;;4001124;29;20057;-60
2023/06/09 04:43:27;;;;;;;13.05;5.15;;;20.00;67.50;;;;;;4002164;29;20084;-59
2023/06/09 04:46:10;;;;;;;12.13;5.40;;;20.00;67.30;;;;;;4000487;29;20068;-59
2023/06/09 04:48:54;;;;;;;10.05;5.18;;;20.00;67.20;;;;;;4001176;29;20554;-59
2023/06/09 04:51:41;;;;;;;10.32;5.05;;;20.00;67.10;;;;;;3998755;29;20113;-60
2023/06/09 04:54:28;;;;;;;14.70;5.78;;;20.00;67.20;;;;;;4001325;29;21073;-59
2023/06/09 04:57:17;;;;;;;13.35;6.07;;;20.00;67.30;;;;;;4000806;29;20052;-59
2023/06/09 05:00:03;;;;;;;12.43;6.45;;;20.00;67.50;;;;;;3992230;29;20405;-60
2023/06/09 05:02:45;;;;;;;14.05;6.45;;;20.00;67.60;;;;;;4000981;29;20057;-60
2023/06/09 05:05:26;;;;;;;16.95;7.03;;;20.00;67.60;;;;;;4000865;29;20060;-54
2023/06/09 05:08:09;;;;;;;16.00;7.43;;;20.00;67.80;;;;;;4000140;29;20109;-59
2023/06/09 05:10:52;;;;;;;15.65;6.63;;;20.10;69.30;;;;;;4000808;29;20632;-59
2023/06/09 05:13:35;;;;;;;9.63;6.05;;;20.10;69.30;;;;;;4000310;29;20078;-60
2023/06/09 05:16:18;;;;;;;13.35;6.90;;;20.10;68.40;;;;;;3985864;29;20085;-59
2023/06/09 05:18:59;;;;;;;11.57;5.90;;;20.10;67.90;;;;;;3995620;29;20160;-59
2023/06/09 05:21:45;;;;;;;13.95;5.60;;;20.20;67.70;;;;;;4000547;29;20197;-61
2023/06/09 05:24:26;;;;;;;15.90;6.45;;;20.20;68.00;;;;;;4000221;29;20539;-51
2023/06/09 05:27:08;;;;;;;;;;;20.20;68.50;;;;;;4000555;29;20060;-60
2023/06/09 05:29:50;;;;;;;12.98;5.68;;;20.30;68.20;;;;;;3992238;29;20367;-59
2023/06/09 05:32:32;;;;;;;13.20;5.90;;;20.30;68.20;;;;;;4000178;29;20056;-59
2023/06/09 05:35:13;;;;;;;10.63;5.55;;;20.40;68.20;;;;;;4000286;29;20501;-59
2023/06/09 05:37:56;;;;;;;;;;;20.40;68.10;;;;;;4000815;29;20094;-60
2023/06/09 05:40:40;;;;;;;9.93;6.07;;;20.50;68.00;;;;;;3999550;29;19932;-59
2023/06/09 05:43:21;;;;;;;;;;;20.50;68.20;;;;;;4001190;29;20591;-59
2023/06/09 05:46:04;;;;;;;14.70;6.07;;;20.60;67.80;;;;;;4000413;29;20015;-59
2023/06/09 05:48:45;;;;;;;14.00;5.75;;;20.60;67.60;;;;;;4001758;29;20500;-59
2023/06/09 05:51:26;;;;;;;13.77;6.32;;;20.60;67.40;;;;;;4001743;29;20065;-59
2023/06/09 05:54:07;;;;;;;15.23;5.88;;;20.60;67.30;;;;;;4000719;29;20057;-59
2023/06/09 05:56:48;;;;;;;16.38;5.88;;;20.60;67.50;;;;;;4002824;29;20338;-60
2023/06/09 05:59:32;;;;;;;14.35;6.82;;;20.60;67.70;;;;;;4004689;29;20064;-59
2023/06/09 06:02:15;;;;;;;12.95;6.03;;;20.60;67.90;;;;;;4004520;29;20052;-60
2023/06/09 06:04:57;;;;;;;9.73;5.00;;;20.50;68.00;;;;;;4004583;29;20081;-59
2023/06/09 06:07:39;;;;;;;14.70;5.97;;;20.60;68.20;;;;;;3990674;29;20138;-59
2023/06/09 06:10:19;;;;;;;12.45;6.38;;;20.50;68.30;;;;;;4004428;29;20057;-60
2023/06/09 06:13:03;;;;;;;13.68;5.85;;;20.60;68.50;;;;;;3989068;29;20222;-60
2023/06/09 06:15:45;;;;;;;12.68;5.57;;;20.60;68.30;;;;;;3989119;29;20504;-60
2023/06/09 06:18:27;;;;;;;13.98;5.78;;;20.60;68.40;;;;;;3988225;29;20073;-59
2023/06/09 06:21:08;;;;;;;10.32;5.75;;;20.60;68.40;;;;;;4002094;29;20604;-59
2023/06/09 06:23:49;;;;;;;13.90;5.78;;;20.70;68.30;;;;;;4004331;29;20577;-59
2023/06/09 06:26:30;;;;;;;12.77;5.93;;;20.80;68.00;;;;;;4004256;29;20057;-60
2023/06/09 06:29:11;;;;;;;12.73;6.18;;;20.90;67.60;;;;;;4001237;29;20115;-60
2023/06/09 06:31:52;;;;;;;9.88;5.35;;;20.90;67.30;;;;;;4003545;29;20130;-60
2023/06/09 06:34:34;;;;;;;15.23;6.00;;;20.90;67.30;;;;;;4003734;29;20210;-60
2023/06/09 06:37:18;;;;;;;14.30;5.65;;;20.90;67.50;;;;;;4003286;29;20130;-60
2023/06/09 06:39:58;;;;;;;12.98;6.15;;;20.90;67.30;;;;;;3990399;29;20065;-59
2023/06/09 06:42:40;;;;;;;16.70;5.95;;;21.00;67.40;;;;;;3999473;29;20060;-60
2023/06/09 06:45:28;;;;;;;11.20;5.47;;;21.10;67.50;;;;;;3996976;29;20187;-59
2023/06/09 06:48:09;;;;;;;12.45;5.22;;;21.10;67.30;;;;;;4003893;29;20186;-59
2023/06/09 06:50:51;;;;;;;14.88;6.30;;;21.20;67.10;;;;;;3996163;29;20061;-59
2023/06/09 06:53:32;;;;;;;9.90;5.95;;;21.20;66.90;;;;;;4003518;29;20602;-59
2023/06/09 06:56:13;;;;;;;15.77;6.50;;;21.30;66.60;;;;;;4002910;29;20520;-60
2023/06/09 06:58:54;;;;;;;9.98;5.40;;;21.30;66.50;;;;;;3996692;29;20121;-59
2023/06/09 07:01:36;;;;;;;11.90;5.35;;;21.40;66.40;;;;;;4002921;29;20567;-60
2023/06/09 07:04:17;;;;;;;12.15;5.10;;;21.50;66.90;;;;;;4001201;29;20150;-60
2023/06/09 07:07:00;;;;;;;13.20;4.82;;;21.50;65.90;;;;;;4001438;29;20069;-60
2023/06/09 07:09:41;;;;;;;12.65;5.80;;;21.60;65.90;;;;;;4000389;29;20133;-60
2023/06/09 07:12:22;;;;;;;12.15;5.05;;;21.60;65.60;;;;;;3999584;29;20060;-60
2023/06/09 07:15:04;;;;;;;;;;;21.60;65.30;;;;;;4001505;29;20053;-60
2023/06/09 07:17:46;;;;;;;14.35;6.10;;;21.70;65.30;;;;;;3999811;29;19952;-59
2023/06/09 07:20:27;;;;;;;14.07;6.10;;;21.70;65.20;;;;;;3999578;29;20065;-60
2023/06/09 07:23:10;;;;;;;9.93;5.00;;;21.70;65.00;;;;;;4000653;29;20056;-60
2023/06/09 07:25:52;;;;;;;13.98;5.80;;;21.70;64.90;;;;;;4010218;29;20148;-60
2023/06/09 07:28:33;;;;;;;11.90;5.32;;;21.80;65.00;;;;;;4000807;29;20057;-60
2023/06/09 07:31:14;;;;;;;7.97;5.38;;;21.80;65.90;;;;;;3999908;29;20462;-60
2023/06/09 07:33:55;;;;;;;9.95;5.03;;;21.80;64.90;;;;;;4000741;29;20129;-60
2023/06/09 07:36:37;;;;;;;14.02;5.70;;;21.80;64.80;;;;;;4000549;29;20065;-60
2023/06/09 07:39:20;;;;;;;8.45;5.25;;;21.80;65.20;;;;;;4000006;29;20061;-60
2023/06/09 07:42:01;;;;;;;11.25;5.05;;;21.80;65.20;;;;;;4000380;29;20063;-60
2023/06/09 07:44:43;;;;;;;11.07;5.88;;;21.80;65.30;;;;;;3999623;29;20995;-60
2023/06/09 07:47:23;;;;;;;;;;;21.80;65.30;;;;;;4000657;29;20109;-60
2023/06/09 07:50:06;;;;;;;8.60;5.40;;;21.80;65.30;;;;;;4000440;29;20399;-60
2023/06/09 07:52:48;;;;;;;10.43;5.57;;;21.80;65.40;;;;;;4000490;29;20052;-60
2023/06/09 07:55:30;;;;;;;11.73;6.00;;;21.80;65.50;;;;;;4000542;29;20118;-60
2023/06/09 07:58:11;;;;;;;15.88;5.88;;;21.80;65.50;;;;;;3998222;29;20064;-60
2023/06/09 08:00:52;;;;;;;11.32;5.72;;;21.80;65.60;;;;;;3999360;29;20170;-60
2023/06/09 08:03:35;;;;;;;9.13;5.55;;;21.80;65.70;;;;;;4000090;29;20072;-60
2023/06/09 08:06:16;;;;;;;11.75;5.03;;;21.80;65.70;;;;;;3999266;29;20048;-59
2023/06/09 08:08:58;;;;;;;12.13;4.88;;;21.80;66.60;;;;;;3999884;29;20057;-59
2023/06/09 08:11:40;;;;;;;10.50;5.05;;;21.80;65.70;;;;;;3999324;29;20501;-59
2023/06/09 08:14:22;;;;;;;9.32;4.55;;;21.80;65.70;;;;;;3999540;29;20075;-63
2023/06/09 08:17:03;;;;;;;8.23;4.85;;;21.80;66.40;;;;;;3999951;29;20081;-61
2023/06/09 08:19:44;;;;;;;11.35;5.47;;;21.80;65.60;;;;;;3998690;29;20616;-60
2023/06/09 08:22:26;;;;;;;10.77;5.55;;;21.90;65.60;;;;;;3998654;29;20064;-59
2023/06/09 08:25:08;;;;;;;13.63;5.20;;;21.90;64.90;;;;;;4000242;29;20057;-59
2023/06/09 08:27:50;;;;;;;10.35;4.88;;;21.90;64.20;;;;;;3999737;29;20378;-59
2023/06/09 08:30:31;;;;;;;10.80;5.35;;;21.90;64.50;;;;;;3999392;29;20064;-59
2023/06/09 08:33:12;;;;;;;9.85;5.38;;;22.00;64.80;;;;;;3999136;29;20130;-60
2023/06/09 08:35:53;;;;;;;10.55;5.55;;;22.00;64.30;;;;;;4000022;29;20517;-60
2023/06/09 08:38:35;;;;;;;9.38;4.72;;;22.00;64.30;;;;;;3999535;29;20089;-60
2023/06/09 08:41:17;;;;;;;8.68;5.32;;;22.00;64.10;;;;;;3999479;29;20114;-59
2023/06/09 08:43:59;;;;;;;7.55;5.30;;;22.00;64.00;;;;;;3999440;29;20061;-59
2023/06/09 08:46:42;;;;;;;7.55;5.20;;;22.10;65.10;;;;;;3999900;29;20074;-59
2023/06/09 08:49:24;;;;;;;12.13;5.78;;;22.20;64.30;;;;;;3999225;29;20092;-59
2023/06/09 08:52:06;;;;;;;10.27;5.20;;;22.10;64.00;;;;;;3997761;29;20056;-60
2023/06/09 08:54:47;;;;;;;11.57;5.07;;;22.20;64.20;;;;;;3999178;29;20053;-60
2023/06/09 08:57:28;;;;;;;12.73;5.93;;;22.20;65.20;;;;;;3999652;29;20529;-60
2023/06/09 09:00:12;;;;;;;11.27;5.88;;;22.20;64.20;;;;;;3999148;29;20141;-60
2023/06/09 09:02:53;;;;;;;13.32;5.90;;;22.30;64.30;;;;;;3999698;29;20426;-59
2023/06/09 09:05:35;;;;;;;15.85;6.72;;;22.30;64.30;;;;;;3999386;29;20060;-60
2023/06/09 09:08:16;;;;;;;8.90;5.70;;;22.30;64.10;;;;;;3998573;29;20141;-59
2023/06/09 09:10:57;;;;;;;8.75;5.22;;;22.40;63.80;;;;;;3999541;29;20064;-60
2023/06/09 09:13:39;;;;;;;6.93;4.97;;;22.40;63.60;;;;;;3999124;29;20069;-59
2023/06/09 09:16:21;;;;;;;9.52;4.85;;;22.40;63.50;;;;;;3999087;29;20630;-60
2023/06/09 09:19:03;;;;;;;9.70;5.57;;;22.50;63.40;;;;;;3999169;29;20417;-59
2023/06/09 09:21:44;;;;;;;11.73;5.22;;;22.50;63.40;;;;;;3999136;29;20113;-60
2023/06/09 09:24:30;;;;;;;10.88;4.90;;;22.50;63.00;;;;;;3998802;29;20061;-59
2023/06/09 09:27:18;;;;;;;9.32;4.82;;;22.60;63.00;;;;;;3999111;29;20061;-60
2023/06/09 09:29:59;;;;;;;15.00;6.20;;;22.60;63.30;;;;;;3999417;29;20068;-60
2023/06/09 09:32:42;;;;;;;10.73;5.18;;;22.70;63.10;;;;;;3998918;29;20109;-59
2023/06/09 09:35:25;;;;;;;10.40;5.63;;;22.70;62.80;;;;;;3998006;29;20509;-59
2023/06/09 09:38:13;;;;;;;8.43;5.00;;;22.70;62.90;;;;;;3998714;29;20386;-59
2023/06/09 09:40:55;;;;;;;11.23;4.63;;;22.80;63.00;;;;;;3998385;29;20053;-60
2023/06/09 09:43:37;;;;;;;9.93;5.55;;;22.80;62.90;;;;;;3999571;29;20155;-60
2023/06/09 09:46:20;;;;;;;7.50;4.97;;;22.80;62.80;;;;;;3999396;29;20183;-60
2023/06/09 09:49:03;;;;;;;8.40;5.13;;;22.90;63.90;;;;;;3999466;29;20056;-59
2023/06/09 09:51:44;;;;;;;8.65;5.60;;;22.90;63.10;;;;;;3997472;29;20565;-60
2023/06/09 09:54:25;;;;;;;9.55;5.18;;;22.90;62.90;;;;;;3998527;29;20500;-60
2023/06/09 09:57:08;;;;;;;8.68;5.55;;;23.00;63.10;;;;;;3998911;29;20061;-59
2023/06/09 09:59:51;;;;;;;12.82;5.78;;;23.10;62.80;;;;;;3998903;29;21066;-59
2023/06/09 10:02:33;;;;;;;8.85;6.00;;;23.10;63.00;;;;;;3997750;29;20125;-60
2023/06/09 10:05:21;;;;;;;11.20;5.85;;;23.10;63.00;;;;;;3999168;29;20214;-59
2023/06/09 10:08:05;;;;;;;9.07;5.70;;;23.10;63.40;;;;;;3997249;29;20064;-59
2023/06/09 10:10:47;;;;;;;7.57;5.35;;;23.20;63.30;;;;;;3998605;29;20106;-60
2023/06/09 10:13:28;;;;;;;9.48;5.60;;;23.20;63.30;;;;;;3998515;29;20077;-59
2023/06/09 10:16:10;;;;;;;11.00;5.53;;;23.20;63.10;;;;;;3998689;29;20057;-59
2023/06/09 10:18:52;;;;;;;7.72;4.93;;;23.30;62.20;;;;;;3998971;29;20535;-59
2023/06/09 10:21:35;;;;;;;7.57;4.80;;;23.30;62.50;;;;;;3998900;29;20485;-60
2023/06/09 10:24:18;;;;;;;11.52;5.05;;;23.40;62.80;;;;;;3998887;29;20574;-60
2023/06/09 10:26:59;;;;;;;7.18;5.13;;;23.40;62.60;;;;;;3998104;29;20124;-59
2023/06/09 10:29:40;;;;;;;10.50;4.97;;;23.50;62.40;;;;;;3998874;29;20057;-59
2023/06/09 10:32:23;;;;;;;;;;;23.50;61.80;;;;;;3999508;29;20068;-60
2023/06/09 10:35:06;;;;;;;8.75;4.50;;;23.50;62.10;;;;;;3998066;29;19932;-59
2023/06/09 10:37:50;;;;;;;6.32;4.22;;;23.50;62.10;;;;;;3998780;29;20057;-59
2023/06/09 10:40:42;;;;;;;5.68;4.50;;;23.60;61.50;;;;;;3998107;29;20065;-60
2023/06/09 10:43:37;;;;;;;6.55;4.80;;;23.60;62.00;;;;;;3999331;29;20072;-59
2023/06/09 10:46:38;;;;;;;7.70;4.57;;;23.60;60.60;;;;;;4000480;29;20086;-60
2023/06/09 10:49:42;;;;;;;4.53;3.97;;;23.70;61.20;;;;;;4001229;29;20153;-60
2023/06/09 10:52:55;;;;;;;6.00;4.30;;;23.70;59.30;;;;;;4001091;29;20056;-61
2023/06/09 10:55:36;;;;;;;7.88;4.22;;;23.80;58.50;;;;;;4000773;29;20061;-60
2023/06/09 10:58:38;;;;;;;5.95;4.75;;;23.80;58.40;;;;;;4001513;29;20061;-59
2023/06/09 11:01:19;;;;;;;8.18;4.25;;;23.80;57.40;;;;;;4001305;29;20096;-59
2023/06/09 11:04:00;;;;;;;6.88;4.28;;;23.90;58.10;;;;;;4000453;29;20065;-60
2023/06/09 11:07:11;;;;;;;9.38;4.13;;;23.90;58.00;;;;;;4001338;29;20097;-59
2023/06/09 11:10:35;;;;;;;5.25;4.18;;;24.00;57.90;;;;;;4001327;29;20504;-59
2023/06/09 11:13:40;;;;;;;6.43;3.95;;;24.00;57.50;;;;;;4000326;29;20097;-59
2023/06/09 11:16:21;;;;;;;5.70;4.47;;;24.00;56.80;;;;;;3998717;29;20053;-60
2023/06/09 11:19:21;;;;;;;7.00;3.92;;;24.10;56.70;;;;;;3999937;29;20068;-59
2023/06/09 11:22:05;;;;;;;6.43;4.57;;;24.10;56.00;;;;;;4000847;29;20060;-59
2023/06/09 11:24:46;;;;;;;;;;;24.10;56.50;;;;;;4001543;29;20156;-61
2023/06/09 11:27:27;;;;;;;5.25;4.25;;;24.10;56.70;;;;;;4001326;29;19936;-61
2023/06/09 11:30:14;;;;;;;5.00;4.13;;;24.20;56.60;;;;;;4000544;29;20065;-60
2023/06/09 11:32:56;;;;;;;11.27;4.60;;;24.20;56.40;;;;;;4000750;29;20125;-60
2023/06/09 11:35:43;;;;;;;8.30;4.82;;;24.20;56.40;;;;;;4000928;29;20105;-61
2023/06/09 11:38:24;;;;;;;7.53;4.40;;;24.20;56.00;;;;;;4000866;29;20061;-61
2023/06/09 11:41:09;;;;;;;7.90;4.18;;;24.30;55.80;;;;;;4000576;29;20292;-61
2023/06/09 11:43:51;;;;;;;5.95;3.75;;;24.30;55.80;;;;;;4000782;29;20061;-61
2023/06/09 11:46:36;;;;;;;7.18;4.28;;;24.30;55.70;;;;;;4000455;29;20078;-61
2023/06/09 11:49:23;;;;;;;5.15;4.30;;;24.40;55.40;;;;;;3998554;29;20190;-61
2023/06/09 11:52:06;;;;;;;6.10;4.20;;;24.40;55.40;;;;;;4000357;29;20056;-61
2023/06/09 11:54:47;;;;;;;6.47;4.80;;;24.40;55.60;;;;;;3999380;29;20061;-61
2023/06/09 11:57:32;;;;;;;7.70;4.75;;;24.50;55.20;;;;;;3999925;29;20076;-61
2023/06/09 12:00:14;;;;;;;4.70;4.13;;;24.50;55.20;;;;;;4000405;29;20382;-61
2023/06/09 12:02:58;;;;;;;8.00;4.50;;;24.50;55.40;;;;;;3999813;29;20130;-61
2023/06/09 12:05:39;;;;;;;6.15;4.63;;;24.50;55.10;;;;;;4000381;29;20057;-61
2023/06/09 12:08:20;;;;;;;4.68;4.10;;;24.50;55.10;;;;;;3999113;29;20068;-61
2023/06/09 12:11:02;;;;;;;;;;;24.50;55.30;;;;;;4000126;29;20537;-61
2023/06/09 12:13:45;;;;;;;;;;;24.60;55.50;;;;;;4000366;29;20387;-61
2023/06/09 12:16:26;;;;;;;7.30;4.28;;;24.60;55.80;;;;;;4000523;29;20016;-61
2023/06/09 12:19:10;;;;;;;7.80;4.47;;;24.60;55.30;;;;;;3999731;29;20187;-61
2023/06/09 12:21:51;;;;;;;6.40;3.90;;;24.60;55.10;;;;;;3999773;29;20171;-61
2023/06/09 12:24:33;;;;;;;5.90;4.05;;;24.60;54.80;;;;;;3999779;29;20201;-61
2023/06/09 12:27:15;;;;;;;4.72;3.80;;;24.70;55.10;;;;;;4000185;29;20194;-61
2023/06/09 12:29:55;;;;;;;6.90;4.68;;;24.70;54.90;;;;;;3999408;29;20525;-61
2023/06/09 12:32:37;;;;;;;8.40;4.82;;;24.70;54.70;;;;;;3999038;29;20052;-61
2023/06/09 12:35:19;;;;;;;;;;;24.70;54.80;;;;;;3999879;29;20057;-62
2023/06/09 12:38:10;;;;;;;8.23;4.22;;;24.80;54.70;;;;;;3998949;29;20490;-61
2023/06/09 12:40:52;;;;;;;6.45;4.40;;;24.80;54.30;;;;;;3999262;29;20526;-61
2023/06/09 12:43:48;;;;;;;6.63;4.47;;;24.80;54.80;;;;;;3988209;29;20078;-61
2023/06/09 12:46:35;;;;;;;6.90;4.35;;;24.90;54.40;;;;;;3999003;29;20417;-61
2023/06/09 12:49:16;;;;;;;7.57;4.50;;;24.90;54.40;;;;;;3999519;29;20076;-61
2023/06/09 12:52:00;;;;;;;4.80;3.97;;;24.90;54.30;;;;;;3999892;29;20072;-60
2023/06/09 12:54:42;;;;;;;6.72;4.53;;;24.90;54.10;;;;;;3999830;29;20057;-60
2023/06/09 12:57:31;;;;;;;4.57;3.92;;;24.90;54.00;;;;;;3999320;29;20081;-61
2023/06/09 13:00:14;;;;;;;7.75;4.50;;;25.00;54.10;;;;;;3999880;29;20136;-61
2023/06/09 13:03:04;;;;;;;7.50;4.20;;;25.00;54.00;;;;;;3998597;29;20065;-61
2023/06/09 13:05:45;;;;;;;5.00;4.57;;;25.00;54.30;;;;;;3999241;29;20137;-62
2023/06/09 13:08:27;;;;;;;7.95;4.75;;;25.00;54.00;;;;;;3999869;29;20077;-62
2023/06/09 13:11:09;;;;;;;5.22;4.35;;;25.10;53.90;;;;;;3999420;29;20094;-62
2023/06/09 13:13:51;;;;;;;5.47;4.50;;;25.10;54.00;;;;;;3999531;29;20056;-61
2023/06/09 13:16:32;;;;;;;5.90;4.05;;;25.10;54.10;;;;;;3998427;29;20060;-61
2023/06/09 13:19:14;;;;;;;6.60;4.38;;;25.10;54.10;;;;;;3999524;29;20064;-61
2023/06/09 13:21:54;;;;;;;7.07;4.32;;;25.10;54.00;;;;;;3998635;29;20413;-61
2023/06/09 13:24:37;;;;;;;6.32;4.03;;;25.10;53.70;;;;;;3998900;29;20068;-62
2023/06/09 13:27:18;;;;;;;6.38;4.45;;;25.10;53.60;;;;;;3998368;29;20064;-62
2023/06/09 13:29:59;;;;;;;7.70;4.28;;;25.20;53.70;;;;;;3998388;29;20049;-61
2023/06/09 13:32:40;;;;;;;6.10;4.20;;;25.10;53.40;;;;;;3998567;29;20121;-61
2023/06/09 13:35:21;;;;;;;6.22;4.07;;;25.20;53.60;;;;;;3999088;29;20065;-62
2023/06/09 13:38:03;;;;;;;4.80;4.35;;;25.20;53.50;;;;;;3998152;29;20056;-61
2023/06/09 13:40:47;;;;;;;6.30;4.57;;;25.20;53.30;;;;;;3999012;29;20061;-62
2023/06/09 13:43:28;;;;;;;7.65;4.30;;;25.30;53.40;;;;;;3999560;29;20065;-61
2023/06/09 13:46:09;;;;;;;6.13;4.32;;;25.30;53.10;;;;;;4001140;29;20061;-61
2023/06/09 13:48:50;;;;;;;6.95;4.53;;;25.30;53.10;;;;;;4001485;29;20068;-61
2023/06/09 13:51:34;;;;;;;5.55;4.78;;;25.30;52.70;;;;;;4001708;29;20390;-62
2023/06/09 13:54:14;;;;;;;7.45;4.38;;;25.30;52.80;;;;;;4001466;29;20397;-61
2023/06/09 13:56:57;;;;;;;4.18;3.80;;;25.30;52.80;;;;;;3986357;29;20061;-61
2023/06/09 13:59:39;;;;;;;5.05;4.63;;;25.40;52.90;;;;;;3985343;29;20109;-61
2023/06/09 14:02:20;;;;;;;5.38;4.18;;;25.40;52.70;;;;;;3986327;29;20109;-61
2023/06/09 14:05:01;;;;;;;7.43;4.35;;;25.40;52.80;;;;;;3994555;29;20401;-61
2023/06/09 14:07:42;;;;;;;;;;;25.40;52.50;;;;;;4001351;29;20202;-61